Time;durP1;ratioP1;P1;durP2;ratioP2;P2;SDS_P1;SDS_P2;PMS_P1;PMS_P2;Temp;Humidity;BMP_temperature;BMP_pressure;BME280_temperature;BME280_humidity;BME280_pressure;Samples;Min_cycle;Max_cycle;Signal;HPM_P1;HPM_P2
2021/12/20 00:00:20;;;;;;;12.73;6.97;;;;;;;1.98;nan;94601.19;6041082;23;20007;-84
2021/12/20 00:02:48;;;;;;;12.07;7.00;;;;;;;1.73;nan;94551.03;6041091;23;20093;-84
2021/12/20 00:05:15;;;;;;;13.27;7.35;;;;;;;2.22;nan;94683.75;6066331;23;20355;-85
2021/12/20 00:07:41;;;;;;;14.40;7.35;;;;;;;1.37;nan;94518.22;6043025;23;20006;-85
2021/12/20 00:10:07;;;;;;;11.90;7.57;;;;;;;2.05;nan;94633.22;6064948;23;20018;-85
2021/12/20 00:12:33;;;;;;;14.13;7.68;;;;;;;1.73;nan;94558.88;6042117;23;20073;-84
2021/12/20 00:14:59;;;;;;;12.82;7.18;;;;;;;1.82;nan;94576.56;6066151;23;20474;-84
2021/12/20 00:17:24;;;;;;;11.63;6.28;;;;;;;1.64;nan;94581.16;6065845;23;20026;-85
2021/12/20 00:19:49;;;;;;;13.80;7.57;;;;;;;1.43;nan;94510.22;6065890;23;20110;-85
2021/12/20 00:22:15;;;;;;;12.77;6.60;;;;;;;2.20;nan;94646.56;6066462;23;20007;-85
2021/12/20 00:24:42;;;;;;;9.90;6.22;;;;;;;1.72;nan;94557.28;6066054;23;20011;-85
2021/12/20 00:27:08;;;;;;;11.00;5.78;;;;;;;1.72;nan;94531.94;6067043;23;20018;-85
2021/12/20 00:29:34;;;;;;;11.45;6.45;;;;;;;2.04;nan;94576.69;6041566;23;20011;-85
2021/12/20 00:32:00;;;;;;;9.65;5.53;;;;;;;2.10;nan;94632.50;6065910;23;20014;-85
2021/12/20 00:34:25;;;;;;;11.75;6.25;;;;;;;2.11;nan;94579.97;6065113;23;20097;-85
2021/12/20 00:36:57;;;;;;;15.15;7.20;;;;;;;2.42;nan;94640.66;6065309;23;20354;-85
2021/12/20 00:42:15;;;;;;;9.43;5.90;;;;;;;2.21;nan;94615.97;6021836;23;20370;-84
2021/12/20 00:44:41;;;;;;;8.95;5.32;;;;;;;2.13;nan;94584.97;6040911;23;20015;-84
2021/12/20 00:47:06;;;;;;;9.50;5.53;;;;;;;2.45;nan;94634.94;6065895;23;20015;-84
2021/12/20 00:49:32;;;;;;;10.43;5.60;;;;;;;1.98;nan;94561.94;6041699;23;20522;-84
2021/12/20 00:51:58;;;;;;;9.60;5.72;;;;;;;2.04;nan;94579.31;6040580;23;20525;-85
2021/12/20 00:54:24;;;;;;;13.10;6.25;;;;;;;2.39;nan;94626.22;6067031;23;20491;-84
2021/12/20 00:56:50;;;;;;;11.55;6.25;;;;;;;2.03;nan;94580.34;6040696;23;20971;-84
2021/12/20 00:59:15;;;;;;;8.85;5.53;;;;;;;2.06;nan;94576.47;6040485;23;20011;-84
2021/12/20 01:01:41;;;;;;;9.48;5.45;;;;;;;2.54;nan;94636.16;6041022;23;20011;-85
2021/12/20 01:04:07;;;;;;;11.63;5.43;;;;;;;2.57;nan;94646.97;6064146;23;20011;-84
2021/12/20 01:06:33;;;;;;;9.02;5.60;;;;;;;2.22;nan;94604.47;6063820;23;20051;-84
2021/12/20 01:08:59;;;;;;;8.35;5.40;;;;;;;2.54;nan;94660.50;6063662;23;20144;-85
2021/12/20 01:11:27;;;;;;;9.45;5.28;;;;;;;2.08;nan;94584.84;6040397;23;20187;-85
2021/12/20 01:13:54;;;;;;;9.07;5.70;;;;;;;1.56;nan;94503.94;6063668;23;20023;-84
2021/12/20 01:16:29;;;;;;;8.65;5.13;;;;;;;1.71;nan;94524.31;6064334;23;20363;-84
2021/12/20 01:18:55;;;;;;;7.78;5.18;;;;;;;1.67;nan;94515.38;6040832;23;20010;-85
2021/12/20 01:21:21;;;;;;;9.13;5.63;;;;;;;2.06;nan;94569.38;6065325;23;20102;-84
2021/12/20 01:23:46;;;;;;;10.90;6.68;;;;;;;1.29;nan;94463.72;6068162;23;20351;-84
2021/12/20 01:26:11;;;;;;;7.30;5.38;;;;;;;2.04;nan;94576.69;6065775;23;20138;-85
2021/12/20 01:28:39;;;;;;;11.65;5.82;;;;;;;2.29;nan;94624.22;6067207;23;20017;-85
2021/12/20 01:31:05;;;;;;;10.75;6.28;;;;;;;2.46;nan;94637.31;6042027;23;20023;-85
2021/12/20 01:33:30;;;;;;;8.38;5.55;;;;;;;2.57;nan;94664.47;6067865;23;20042;-84
2021/12/20 01:35:56;;;;;;;8.35;5.00;;;;;;;2.25;nan;94590.91;6042273;23;20017;-85
2021/12/20 01:38:22;;;;;;;15.50;5.75;;;;;;;1.87;nan;94539.25;6042128;23;20015;-85
2021/12/20 01:40:48;;;;;;;10.02;5.93;;;;;;;1.94;nan;94550.34;6068817;23;20007;-84
2021/12/20 01:43:16;;;;;;;8.02;5.45;;;;;;;2.59;nan;94665.06;6067665;23;20007;-84
2021/12/20 01:45:41;;;;;;;11.73;5.32;;;;;;;2.58;nan;94640.69;6074302;23;20061;-84
2021/12/20 01:48:10;;;;;;;7.88;5.35;;;;;;;2.03;nan;94561.22;6073199;23;20086;-85
2021/12/20 01:53:17;;;;;;;9.35;5.75;;;;;;;1.47;nan;94477.38;6069318;23;20403;-84
2021/12/20 01:55:43;;;;;;;9.70;5.50;;;;;;;2.12;nan;94562.44;6043911;23;20110;-85
2021/12/20 01:58:08;;;;;;;11.30;6.25;;;;;;;2.55;nan;94635.13;6070511;23;20066;-85
2021/12/20 02:01:01;;;;;;;7.82;5.40;;;;;;;1.25;nan;94446.91;6068882;23;20043;-85
2021/12/20 02:03:20;;;;;;;14.40;7.20;;;;;;;2.22;nan;94596.59;6070879;23;20366;-84
2021/12/20 02:05:51;;;;;;;10.55;6.07;;;;;;;2.25;nan;94624.94;6070043;23;20006;-85
2021/12/20 02:08:22;;;;;;;11.35;6.38;;;;;;;0.14;nan;94300.19;6068824;23;20011;-84
2021/12/20 02:10:50;;;;;;;9.50;6.60;;;;;;;1.97;nan;94578.66;6068964;23;20359;-83
2021/12/20 02:13:17;;;;;;;12.20;6.70;;;;;;;2.54;nan;94646.63;6067663;23;20097;-86
2021/12/20 02:15:43;;;;;;;8.52;6.10;;;;;;;2.14;nan;94594.38;6042052;23;20042;-86
2021/12/20 02:18:09;;;;;;;10.05;6.20;;;;;;;2.21;nan;94634.28;6042826;23;20007;-86
2021/12/20 02:20:36;;;;;;;12.63;6.32;;;;;;;1.32;nan;94465.84;6041092;23;20023;-85
2021/12/20 02:23:02;;;;;;;11.20;6.15;;;;;;;2.41;nan;94633.84;6064331;23;20132;-86
2021/12/20 02:25:29;;;;;;;10.55;6.28;;;;;;;2.04;nan;94583.75;6042479;23;20014;-85
2021/12/20 02:27:56;;;;;;;15.35;9.13;;;;;;;1.42;nan;94481.72;6045020;23;20423;-85
2021/12/20 02:38:25;;;;;;;14.02;8.45;;;;;;;2.12;nan;94597.25;6070108;23;20037;-84
2021/12/20 02:41:08;;;;;;;12.75;7.15;;;;;;;2.47;nan;94646.78;6069045;23;20020;-83
2021/12/20 02:43:38;;;;;;;14.23;8.48;;;;;;;2.01;nan;94577.16;6066812;23;20359;-84
2021/12/20 02:46:08;;;;;;;22.20;9.27;;;;;;;1.96;nan;94582.31;6065803;23;20007;-84
2021/12/20 02:48:34;;;;;;;16.02;8.90;;;;;;;2.09;nan;94615.22;6043708;23;20072;-84
2021/12/20 02:50:59;;;;;;;19.75;7.82;;;;;;;1.56;nan;94519.59;6067912;23;20014;-84
2021/12/20 02:53:25;;;;;;;10.15;6.97;;;;;;;2.07;nan;94604.97;6069662;23;20081;-84
2021/12/20 02:55:50;;;;;;;12.93;8.18;;;;;;;2.18;nan;94616.44;6068178;23;20022;-85
2021/12/20 02:58:16;;;;;;;13.27;8.13;;;;;;;2.26;nan;94626.53;6043047;23;20169;-85
2021/12/20 03:00:41;;;;;;;11.93;7.15;;;;;;;1.88;nan;94567.78;6042946;23;20013;-84
2021/12/20 03:03:08;;;;;;;13.82;7.40;;;;;;;1.81;nan;94553.25;6069053;23;20029;-84
2021/12/20 03:05:34;;;;;;;15.65;7.60;;;;;;;2.53;nan;94647.66;6043700;23;20046;-84
2021/12/20 03:08:00;;;;;;;12.25;7.00;;;;;;;2.52;nan;94648.66;6069700;23;20014;-85
2021/12/20 03:10:28;;;;;;;11.73;6.88;;;;;;;2.56;nan;94644.56;6044074;23;20023;-85
2021/12/20 03:12:54;;;;;;;11.95;7.63;;;;;;;2.07;nan;94593.72;6067153;23;20015;-85
2021/12/20 03:15:23;;;;;;;12.07;7.50;;;;;;;1.87;nan;94568.00;6066560;23;20030;-84
2021/12/20 03:17:52;;;;;;;12.30;7.22;;;;;;;1.86;nan;94592.56;6043391;23;20018;-84
2021/12/20 03:20:20;;;;;;;11.88;8.00;;;;;;;1.65;nan;94530.47;6044405;23;20474;-86
2021/12/20 03:22:45;;;;;;;13.07;7.85;;;;;;;1.55;nan;94518.81;6069729;23;20333;-84
2021/12/20 03:25:11;;;;;;;10.88;6.13;;;;;;;2.23;nan;94629.59;6044254;23;20082;-85
2021/12/20 03:27:36;;;;;;;13.38;7.97;;;;;;;1.38;nan;94498.88;6044010;23;20019;-85
2021/12/20 03:30:05;;;;;;;14.50;7.60;;;;;;;1.79;nan;94550.88;6069795;23;20085;-85
2021/12/20 03:32:31;;;;;;;15.75;8.32;;;;;;;2.04;nan;94608.09;6068023;23;20014;-84
2021/12/20 03:34:56;;;;;;;14.15;8.55;;;;;;;1.64;nan;94547.97;6068279;23;20014;-85
2021/12/20 03:37:22;;;;;;;15.10;9.25;;;;;;;1.91;nan;94613.56;6070072;23;20046;-85
2021/12/20 03:39:47;;;;;;;12.25;8.85;;;;;;;0.47;nan;94424.75;6044817;23;20031;-85
2021/12/20 03:42:13;;;;;;;16.08;8.00;;;;;;;1.82;nan;94604.53;6044432;23;20003;-86
2021/12/20 03:44:43;;;;;;;16.15;9.25;;;;;;;1.98;nan;94627.34;6043488;23;20459;-84
2021/12/20 03:47:10;;;;;;;16.30;8.98;;;;;;;1.19;nan;94487.81;6041796;23;20447;-84
2021/12/20 03:49:35;;;;;;;21.33;10.55;;;;;;;2.14;nan;94649.31;6066173;23;20018;-85
2021/12/20 03:52:04;;;;;;;15.10;9.57;;;;;;;1.65;nan;94599.25;6043074;23;20105;-85
2021/12/20 03:54:30;;;;;;;14.68;9.52;;;;;;;1.73;nan;94624.22;6067346;23;20019;-84
2021/12/20 03:56:55;;;;;;;18.42;10.77;;;;;;;1.49;nan;94594.72;6043792;23;20025;-85
2021/12/20 03:59:21;;;;;;;16.23;9.88;;;;;;;2.04;nan;94690.97;6042180;23;20381;-84
2021/12/20 04:01:46;;;;;;;15.77;9.60;;;;;;;1.01;nan;94511.47;6043331;23;20009;-85
2021/12/20 04:04:12;;;;;;;16.63;10.13;;;;;;;0.87;nan;94490.03;6066998;23;20011;-85
2021/12/20 04:06:37;;;;;;;15.85;9.90;;;;;;;1.30;nan;94572.41;6066753;23;20014;-84
2021/12/20 04:09:04;;;;;;;14.82;10.02;;;;;;;1.62;nan;94653.78;6066343;23;20066;-85
2021/12/20 04:11:31;;;;;;;19.05;11.23;;;;;;;1.10;nan;94580.59;6043624;23;20007;-85
2021/12/20 04:13:57;;;;;;;18.90;11.70;;;;;;;0.11;nan;94438.84;6065728;23;20018;-84
2021/12/20 04:16:23;;;;;;;18.13;10.73;;;;;;;1.13;nan;94591.41;6042963;23;20006;-85
2021/12/20 04:18:48;;;;;;;18.05;10.60;;;;;;;1.45;nan;94645.88;6066403;23;20034;-85
2021/12/20 04:21:14;;;;;;;19.70;12.05;;;;;;;0.56;nan;94543.41;6066433;23;20018;-85
2021/12/20 04:23:40;;;;;;;20.67;11.70;;;;;;;1.46;nan;94678.81;6041874;23;20017;-85
2021/12/20 04:26:05;;;;;;;22.00;12.30;;;;;;;1.46;nan;94681.41;6067378;23;20015;-85
2021/12/20 04:28:31;;;;;;;21.92;12.98;;;;;;;0.81;nan;94560.66;6067272;23;20007;-84
2021/12/20 04:30:57;;;;;;;23.63;12.82;;;;;;;1.51;nan;94671.88;6065572;23;20022;-85
2021/12/20 04:33:22;;;;;;;20.55;11.82;;;;;;;1.64;nan;94696.19;6040773;23;20010;-85
2021/12/20 04:35:48;;;;;;;20.73;11.38;;;;;;;1.26;nan;94658.25;6039505;23;20072;-85
2021/12/20 04:38:14;;;;;;;18.52;10.65;;;;;;;1.40;nan;94675.28;6064150;23;20003;-85
2021/12/20 04:40:40;;;;;;;22.75;13.20;;;;;;;1.14;nan;94634.75;6064096;23;20034;-85
2021/12/20 04:43:06;;;;;;;17.75;10.50;;;;;;;1.24;nan;94680.41;6065937;23;20460;-85
2021/12/20 04:45:33;;;;;;;18.60;11.25;;;;;;;1.75;nan;94724.13;6066382;23;20018;-85
2021/12/20 04:47:59;;;;;;;19.45;12.02;;;;;;;1.41;nan;94682.09;6064285;23;20093;-85
2021/12/20 04:50:26;;;;;;;19.55;12.90;;;;;;;1.17;nan;94631.69;6065467;23;20363;-85
2021/12/20 04:52:54;;;;;;;18.83;10.90;;;;;;;0.87;nan;94591.84;6065106;23;20019;-86
2021/12/20 04:55:20;;;;;;;20.10;11.75;;;;;;;1.56;nan;94699.94;6040316;23;20006;-86
2021/12/20 04:57:47;;;;;;;24.80;14.20;;;;;;;1.24;nan;94649.84;6065186;23;20328;-86
2021/12/20 05:00:18;;;;;;;21.02;12.18;;;;;;;-0.10;nan;94431.56;6037831;23;20070;-87
2021/12/20 05:02:45;;;;;;;21.52;13.10;;;;;;;1.35;nan;94659.50;6038608;23;20058;-85
2021/12/20 05:05:10;;;;;;;19.67;11.00;;;;;;;1.64;nan;94696.97;6059599;23;20921;-84
2021/12/20 05:07:39;;;;;;;16.95;10.25;;;;;;;1.27;nan;94638.97;6058165;23;20051;-84
2021/12/20 05:10:09;;;;;;;22.58;11.95;;;;;;;0.16;nan;94472.03;6060037;23;20415;-84
2021/12/20 05:12:34;;;;;;;15.70;10.23;;;;;;;1.23;nan;94653.50;6043790;23;20078;-85
2021/12/20 05:15:02;;;;;;;17.63;10.38;;;;;;;1.09;nan;94605.13;6059790;23;20596;-85
2021/12/20 05:17:36;;;;;;;21.38;10.80;;;;;;;1.50;nan;94687.78;6034044;23;20015;-84
2021/12/20 05:20:02;;;;;;;16.38;9.68;;;;;;;0.89;nan;94587.22;6039127;23;20011;-87
2021/12/20 05:22:31;;;;;;;15.45;9.65;;;;;;;1.80;nan;94737.31;6060167;23;20038;-87
2021/12/20 05:24:58;;;;;;;16.65;10.63;;;;;;;1.79;nan;94736.50;6066125;23;20011;-87
2021/12/20 05:27:24;;;;;;;14.82;9.45;;;;;;;0.92;nan;94594.56;6060266;23;20213;-84
2021/12/20 05:29:50;;;;;;;15.90;10.40;;;;;;;1.40;nan;94693.59;6060359;23;20451;-86
2021/12/20 05:32:16;;;;;;;18.38;9.35;;;;;;;1.73;nan;94732.19;6034381;23;20727;-86
2021/12/20 05:34:41;;;;;;;13.50;8.80;;;;;;;0.22;nan;94485.00;6054301;23;20097;-85
2021/12/20 05:37:07;;;;;;;13.63;9.15;;;;;;;1.59;nan;94719.59;6059631;23;20023;-84
2021/12/20 05:39:32;;;;;;;17.88;9.52;;;;;;;-0.94;nan;94308.47;6033715;23;20035;-85
2021/12/20 05:41:58;;;;;;;15.30;9.27;;;;;;;-0.90;nan;94348.63;6058178;23;20011;-84
2021/12/20 05:44:24;;;;;;;14.50;9.13;;;;;;;1.59;nan;94753.56;6024712;23;20102;-85
2021/12/20 05:46:52;;;;;;;16.88;10.25;;;;;;;-1.21;nan;94296.84;6052124;23;20053;-85
2021/12/20 05:49:20;;;;;;;15.10;8.82;;;;;;;1.31;nan;94702.78;6026561;23;20580;-84
2021/12/20 05:51:45;;;;;;;16.95;10.02;;;;;;;1.23;nan;94663.94;6057382;23;20689;-85
2021/12/20 05:54:11;;;;;;;13.82;8.95;;;;;;;1.14;nan;94660.09;6057383;23;20162;-85
2021/12/20 05:56:36;;;;;;;14.18;8.75;;;;;;;1.07;nan;94647.13;6056385;23;20091;-86
2021/12/20 05:59:04;;;;;;;15.18;9.57;;;;;;;1.86;nan;94757.28;6030011;23;20015;-87
2021/12/20 06:01:35;;;;;;;16.00;9.90;;;;;;;1.51;nan;94721.53;6054126;23;20010;-86
2021/12/20 06:04:00;;;;;;;18.95;11.27;;;;;;;1.84;nan;94765.38;6055310;23;20109;-86
2021/12/20 06:06:28;;;;;;;17.70;9.35;;;;;;;1.53;nan;94727.31;6031816;23;20548;-86
2021/12/20 06:08:57;;;;;;;16.30;10.02;;;;;;;-0.18;nan;94466.56;6057471;23;20085;-86
2021/12/20 06:11:24;;;;;;;17.52;9.60;;;;;;;1.62;nan;94759.13;6056929;23;20022;-87
2021/12/20 06:13:51;;;;;;;18.92;10.07;;;;;;;-2.40;nan;94129.50;6034164;23;20031;-87
2021/12/20 06:16:17;;;;;;;13.55;7.13;;;;;;;1.85;nan;94764.34;6059273;23;20518;-86
2021/12/20 06:18:45;;;;;;;14.30;8.60;;;;;;;1.71;nan;94754.34;6059842;23;20011;-87
2021/12/20 06:21:16;;;;;;;11.73;8.07;;;;;;;1.72;nan;94748.91;6052083;23;20081;-87
2021/12/20 06:23:42;;;;;;;14.35;7.47;;;;;;;1.46;nan;94718.78;6033593;23;20040;-85
2021/12/20 06:26:07;;;;;;;11.82;8.32;;;;;;;0.77;nan;94644.63;6031744;23;20541;-86
2021/12/20 06:28:33;;;;;;;11.00;7.47;;;;;;;1.02;nan;94643.63;6060628;23;20010;-85
2021/12/20 06:31:00;;;;;;;14.80;8.43;;;;;;;0.85;nan;94620.00;6057614;23;20018;-85
2021/12/20 06:33:27;;;;;;;13.88;9.05;;;;;;;1.31;nan;94684.50;6060056;23;20023;-85
2021/12/20 06:35:54;;;;;;;17.48;9.40;;;;;;;0.97;nan;94633.88;6055145;23;20109;-85
2021/12/20 06:38:21;;;;;;;14.70;9.38;;;;;;;1.66;nan;94741.19;6057215;23;20019;-86
2021/12/20 06:40:47;;;;;;;14.07;8.45;;;;;;;2.07;nan;94801.16;6057039;23;20015;-85
2021/12/20 06:43:30;;;;;;;15.60;8.60;;;;;;;-0.51;nan;94390.72;6058560;23;20057;-86
2021/12/20 06:45:56;;;;;;;16.50;9.18;;;;;;;1.84;nan;94764.56;6032750;23;20015;-86
2021/12/20 06:48:21;;;;;;;13.43;7.75;;;;;;;-0.06;nan;94503.88;6059330;23;20121;-85
2021/12/20 06:50:47;;;;;;;15.05;8.88;;;;;;;1.68;nan;94791.44;6032942;23;20011;-86
2021/12/20 06:53:13;;;;;;;11.88;7.45;;;;;;;0.52;nan;94552.72;6055864;23;20042;-85
2021/12/20 06:55:38;;;;;;;13.57;7.60;;;;;;;0.17;nan;94546.63;6032598;23;20110;-85
2021/12/20 06:58:05;;;;;;;14.32;8.48;;;;;;;-0.17;nan;94434.28;6057372;23;20021;-85
2021/12/20 07:00:31;;;;;;;12.43;8.48;;;;;;;1.38;nan;94690.41;6053997;23;20085;-85
2021/12/20 07:02:56;;;;;;;10.68;6.95;;;;;;;1.79;nan;94767.88;6057574;23;20304;-85
2021/12/20 07:05:23;;;;;;;11.40;7.18;;;;;;;1.77;nan;94782.19;6053061;23;20042;-86
2021/12/20 07:07:49;;;;;;;13.68;7.63;;;;;;;2.02;nan;94789.81;6034135;23;20022;-86
2021/12/20 07:10:15;;;;;;;13.88;7.63;;;;;;;-0.22;nan;94441.97;6055576;23;20019;-85
2021/12/20 07:12:40;;;;;;;11.52;7.13;;;;;;;-2.66;nan;94100.47;6055720;23;20034;-84
2021/12/20 07:15:10;;;;;;;10.38;6.95;;;;;;;2.22;nan;94798.84;6054010;23;20091;-87
2021/12/20 07:17:36;;;;;;;15.15;8.02;;;;;;;1.45;nan;94664.16;6057178;23;20040;-87
2021/12/20 07:20:03;;;;;;;16.02;8.77;;;;;;;2.30;nan;94805.56;6022686;23;20546;-85
2021/12/20 07:22:31;;;;;;;15.10;8.40;;;;;;;1.71;nan;94713.31;6021487;23;20149;-86
2021/12/20 07:24:56;;;;;;;15.02;8.25;;;;;;;1.27;nan;94652.03;6053142;23;20051;-86
2021/12/20 07:27:22;;;;;;;14.30;7.75;;;;;;;-0.01;nan;94435.44;6033610;23;20019;-86
2021/12/20 07:29:47;;;;;;;13.73;7.80;;;;;;;-1.78;nan;94210.63;6054089;23;20022;-85
2021/12/20 07:32:15;;;;;;;14.35;8.13;;;;;;;-2.78;nan;94030.34;6033245;23;20289;-86
2021/12/20 07:34:42;;;;;;;15.25;7.68;;;;;;;-2.89;nan;94023.28;6057125;23;20014;-87
2021/12/20 07:37:10;;;;;;;12.77;7.25;;;;;;;-2.63;nan;94035.16;6057833;23;20454;-85
2021/12/20 07:39:38;;;;;;;13.70;7.15;;;;;;;0.52;nan;94518.00;6053589;23;20030;-86
2021/12/20 07:42:04;;;;;;;8.82;6.30;;;;;;;0.27;nan;94545.09;6056930;23;20093;-86
2021/12/20 07:44:34;;;;;;;13.13;7.22;;;;;;;2.33;nan;94803.28;6031956;23;20034;-85
2021/12/20 07:47:00;;;;;;;11.23;6.18;;;;;;;-2.57;nan;94125.13;6032116;23;20038;-86
2021/12/20 07:49:26;;;;;;;16.05;8.15;;;;;;;-2.72;nan;94025.09;6056222;23;20491;-85
2021/12/20 07:51:53;;;;;;;13.40;8.18;;;;;;;-0.51;nan;94365.47;6028561;23;20798;-85
2021/12/20 07:54:20;;;;;;;14.00;7.72;;;;;;;-2.69;nan;94062.00;6028649;23;20011;-84
2021/12/20 07:56:47;;;;;;;12.70;7.50;;;;;;;-0.01;nan;94543.13;6056640;23;20225;-88
2021/12/20 07:59:13;;;;;;;9.15;6.07;;;;;;;0.48;nan;94522.06;6052657;23;20474;-85
2021/12/20 08:01:40;;;;;;;10.15;6.43;;;;;;;1.55;nan;94709.59;6055129;23;20014;-84
2021/12/20 08:04:09;;;;;;;12.13;7.60;;;;;;;2.32;nan;94827.84;6033107;23;20023;-85
2021/12/20 08:06:35;;;;;;;17.45;7.10;;;;;;;2.03;nan;94768.66;6055667;23;20101;-84
2021/12/20 08:09:01;;;;;;;10.57;6.82;;;;;;;1.96;nan;94767.19;6057249;23;20018;-85
2021/12/20 08:11:26;;;;;;;15.60;7.03;;;;;;;2.26;nan;94786.91;6055557;23;20015;-85
2021/12/20 08:14:01;;;;;;;13.82;6.80;;;;;;;0.62;nan;94518.19;6054789;23;20035;-86
2021/12/20 08:16:27;;;;;;;13.00;6.90;;;;;;;0.07;nan;94450.75;6058784;23;20153;-85
2021/12/20 08:18:52;;;;;;;10.88;6.53;;;;;;;2.08;nan;94758.28;6053881;23;20011;-84
2021/12/20 08:21:21;;;;;;;11.40;6.57;;;;;;;2.60;nan;94805.34;6058160;23;20017;-85
2021/12/20 08:23:55;;;;;;;16.45;7.45;;;;;;;0.61;nan;94475.66;6053092;23;20609;-84
2021/12/20 08:26:22;;;;;;;12.55;6.35;;;;;;;2.44;nan;94808.72;6051593;23;20011;-85
2021/12/20 08:28:48;;;;;;;10.20;4.90;;;;;;;0.13;nan;94407.31;6036963;23;20022;-86
2021/12/20 08:31:15;;;;;;;8.18;5.28;;;;;;;2.49;nan;94769.56;6058481;23;20049;-86
2021/12/20 08:33:42;;;;;;;11.70;5.65;;;;;;;1.07;nan;94539.25;6057175;23;20887;-85
2021/12/20 08:36:12;;;;;;;11.27;5.63;;;;;;;2.81;nan;94820.44;6057588;23;20101;-84
2021/12/20 08:38:39;;;;;;;18.42;5.18;;;;;;;0.24;nan;94487.34;6051907;23;20054;-87
2021/12/20 08:41:11;;;;;;;9.65;4.60;;;;;;;-2.51;nan;94018.59;6057310;23;20010;-83
2021/12/20 08:43:37;;;;;;;10.13;5.03;;;;;;;0.64;nan;94534.44;6053574;23;20487;-85
2021/12/20 08:46:03;;;;;;;15.45;6.78;;;;;;;1.49;nan;94626.09;6036546;23;20006;-85
2021/12/20 08:48:36;;;;;;;9.52;5.72;;;;;;;-2.09;nan;94065.38;6030033;23;20813;-84
2021/12/20 08:51:03;;;;;;;10.48;5.10;;;;;;;1.04;nan;94524.88;6061529;23;20014;-85
2021/12/20 08:53:29;;;;;;;19.73;6.07;;;;;;;2.82;nan;94821.25;6059018;23;20010;-86
2021/12/20 08:55:56;;;;;;;8.60;5.13;;;;;;;2.74;nan;94826.84;6058030;23;20011;-85
2021/12/20 08:58:21;;;;;;;9.93;4.57;;;;;;;2.42;nan;94769.69;6057154;23;20014;-84
2021/12/20 09:00:48;;;;;;;10.07;4.45;;;;;;;2.81;nan;94814.41;6067723;23;20074;-84
2021/12/20 09:03:13;;;;;;;8.68;4.78;;;;;;;2.78;nan;94797.34;6064818;23;20014;-83
2021/12/20 09:05:41;;;;;;;7.50;4.22;;;;;;;0.61;nan;94449.56;6033348;23;20006;-83
2021/12/20 09:08:09;;;;;;;19.65;6.78;;;;;;;-2.32;nan;93977.81;6059681;23;20022;-85
2021/12/20 09:10:38;;;;;;;9.13;4.45;;;;;;;-1.95;nan;94057.16;6052739;23;20015;-84
2021/12/20 09:13:05;;;;;;;7.85;3.70;;;;;;;-0.41;nan;94290.19;6058084;23;20160;-83
2021/12/20 09:15:36;;;;;;;8.07;3.22;;;;;;;-2.33;nan;94078.28;6057613;23;20029;-85
2021/12/20 09:18:04;;;;;;;9.60;4.15;;;;;;;2.46;nan;94760.34;6055733;23;20006;-83
2021/12/20 09:20:30;;;;;;;9.05;3.58;;;;;;;1.28;nan;94551.75;6030953;23;20887;-84
2021/12/20 09:23:03;;;;;;;5.43;2.95;;;;;;;0.84;nan;94508.75;6055865;23;20022;-86
2021/12/20 09:25:30;;;;;;;9.50;3.65;;;;;;;1.99;nan;94715.19;6057998;23;20066;-85
2021/12/20 09:28:00;;;;;;;6.03;3.65;;;;;;;2.81;nan;94799.50;6058326;23;20046;-85
2021/12/20 09:30:27;;;;;;;3.92;3.00;;;;;;;2.53;nan;94766.22;6056301;23;20082;-84
2021/12/20 09:32:53;;;;;;;7.43;3.65;;;;;;;0.62;nan;94445.94;6050240;23;20022;-85
2021/12/20 09:35:18;;;;;;;11.88;4.68;;;;;;;2.82;nan;94776.72;6028414;23;20070;-85
2021/12/20 09:37:50;;;;;;;6.32;3.53;;;;;;;2.25;nan;94677.25;6052029;23;20458;-85
2021/12/20 09:40:17;;;;;;;12.63;4.10;;;;;;;0.97;nan;94487.66;6053937;23;20015;-85
2021/12/20 09:42:53;;;;;;;8.38;3.97;;;;;;;0.96;nan;94465.16;6055218;23;20049;-84
2021/12/20 09:45:20;;;;;;;11.18;4.20;;;;;;;1.38;nan;94511.94;6056220;23;20049;-85
2021/12/20 09:47:49;;;;;;;5.97;3.90;;;;;;;2.94;nan;94790.56;6058300;23;20025;-83
2021/12/20 09:50:21;;;;;;;7.28;3.08;;;;;;;1.75;nan;94593.41;6060348;23;20022;-85
2021/12/20 09:52:47;;;;;;;14.52;3.67;;;;;;;2.41;nan;94713.16;6060415;23;20085;-83
2021/12/20 09:55:16;;;;;;;11.05;3.67;;;;;;;2.48;nan;94732.13;6056442;23;20014;-83
2021/12/20 09:57:46;;;;;;;9.75;4.15;;;;;;;3.00;nan;94813.19;6056432;23;20017;-83
2021/12/20 10:00:15;;;;;;;8.40;3.60;;;;;;;2.70;nan;94763.66;6030528;23;20023;-84
2021/12/20 10:02:43;;;;;;;7.32;4.00;;;;;;;3.18;nan;94815.63;6034397;23;20069;-85
2021/12/20 10:05:12;;;;;;;3.70;2.67;;;;;;;2.75;nan;94760.38;6059224;23;20450;-85
2021/12/20 10:07:39;;;;;;;4.95;2.95;;;;;;;2.31;nan;94700.66;6061351;23;20110;-83
2021/12/20 10:10:06;;;;;;;5.53;2.83;;;;;;;2.01;nan;94675.75;6056682;23;20014;-82
2021/12/20 10:12:31;;;;;;;8.23;3.45;;;;;;;2.59;nan;94744.38;6059313;23;20322;-85
2021/12/20 10:15:18;;;;;;;4.10;3.00;;;;;;;2.99;nan;94830.72;6058581;23;20023;-84
2021/12/20 10:17:58;;;;;;;18.75;4.45;;;;;;;3.03;nan;94829.25;6058733;23;20507;-84
2021/12/20 10:20:27;;;;;;;4.55;2.78;;;;;;;2.51;nan;94741.34;6059992;23;20010;-84
2021/12/20 10:23:06;;;;;;;5.38;3.30;;;;;;;0.47;nan;94443.00;6055338;23;20082;-85
2021/12/20 10:25:32;;;;;;;10.93;3.72;;;;;;;2.53;nan;94774.09;6033746;23;20097;-85
2021/12/20 10:28:14;;;;;;;6.30;3.75;;;;;;;3.03;nan;94815.34;6057986;23;20097;-84
2021/12/20 10:30:43;;;;;;;8.23;3.65;;;;;;;-0.14;nan;94360.06;6053746;23;20028;-84
2021/12/20 10:33:12;;;;;;;6.18;3.58;;;;;;;2.91;nan;94814.59;6058240;23;20057;-86
2021/12/20 10:35:50;;;;;;;12.05;4.20;;;;;;;0.77;nan;94490.63;6068028;23;20011;-83
2021/12/20 10:38:38;;;;;;;9.18;4.30;;;;;;;2.90;nan;94807.78;6040253;23;20015;-85
2021/12/20 10:41:19;;;;;;;14.18;4.88;;;;;;;2.80;nan;94810.19;6061910;23;20010;-85
2021/12/20 10:43:50;;;;;;;6.93;3.67;;;;;;;1.97;nan;94688.50;6033420;23;20101;-82
2021/12/20 10:46:22;;;;;;;8.13;4.13;;;;;;;2.78;nan;94844.47;6059555;23;20364;-87
2021/12/20 10:48:53;;;;;;;6.57;4.13;;;;;;;2.78;nan;94841.06;6035814;23;20010;-84
2021/12/20 10:51:24;;;;;;;8.82;4.65;;;;;;;2.76;nan;94837.88;6059964;23;20046;-85
2021/12/20 10:54:03;;;;;;;12.00;4.65;;;;;;;1.86;nan;94690.09;6036705;23;20517;-84
2021/12/20 10:56:33;;;;;;;10.90;4.43;;;;;;;-0.17;nan;94381.38;6063193;23;20444;-84
2021/12/20 10:59:01;;;;;;;11.23;4.47;;;;;;;2.88;nan;94817.69;6037757;23;20007;-85
2021/12/20 11:04:30;;;;;;;8.77;3.80;;;;;;;3.00;nan;94849.84;6062263;23;20198;-86
2021/12/20 11:09:36;;;;;;;5.80;3.60;;;;;;;2.58;nan;94679.97;6063802;23;20329;-87
2021/12/20 11:12:05;;;;;;;5.65;3.17;;;;;;;2.80;nan;94742.13;6057309;23;20423;-85
2021/12/20 11:14:55;;;;;;;6.97;3.05;;;;;;;3.19;nan;94780.53;6065786;23;20022;-82
2021/12/20 11:17:36;;;;;;;;;;;;;;;;;;;;;
2021/12/20 11:20:03;;;;;;;5.20;2.80;;;;;;;1.65;nan;94535.72;6061301;23;20038;-83
2021/12/20 11:22:31;;;;;;;7.25;3.13;;;;;;;3.04;nan;94760.09;6062202;23;20006;-84
2021/12/20 11:25:04;;;;;;;7.53;3.45;;;;;;;0.54;nan;94362.78;6031746;23;20446;-83
2021/12/20 11:27:32;;;;;;;7.78;3.25;;;;;;;3.56;nan;94816.75;6047590;23;20022;-83
2021/12/20 11:30:03;;;;;;;5.28;3.47;;;;;;;1.38;nan;94525.00;6060395;23;20025;-85
2021/12/20 11:32:30;;;;;;;5.20;3.20;;;;;;;2.95;nan;94742.38;6047764;23;20029;-84
2021/12/20 11:34:56;;;;;;;5.32;3.78;;;;;;;3.13;nan;94812.88;6024151;23;20018;-86
2021/12/20 11:37:25;;;;;;;5.20;3.00;;;;;;;1.41;nan;94582.81;6046369;23;20090;-84
2021/12/20 11:39:53;;;;;;;5.85;3.65;;;;;;;-1.91;nan;94028.13;6045903;23;20109;-85
2021/12/20 11:42:23;;;;;;;8.45;3.40;;;;;;;-2.87;nan;93874.19;6050616;23;20231;-84
2021/12/20 11:44:53;;;;;;;12.70;3.70;;;;;;;1.22;nan;94523.13;6056805;23;20118;-85
2021/12/20 11:47:25;;;;;;;12.23;3.60;;;;;;;3.03;nan;94821.38;6039745;23;20027;-84
2021/12/20 11:50:00;;;;;;;10.68;4.07;;;;;;;-0.17;nan;94326.66;6046879;23;20014;-83
2021/12/20 11:52:36;;;;;;;6.50;3.47;;;;;;;0.58;nan;94489.19;6026637;23;20064;-85
2021/12/20 11:55:23;;;;;;;8.57;4.57;;;;;;;3.05;nan;94853.34;6048182;23;20135;-85
2021/12/20 11:58:00;;;;;;;6.22;3.80;;;;;;;2.88;nan;94825.53;6050930;23;20018;-85
2021/12/20 12:00:39;;;;;;;2.90;2.30;;;;;;;0.24;nan;94446.41;6027843;23;20022;-86
2021/12/20 12:03:17;;;;;;;2.50;2.22;;;;;;;1.27;nan;94618.06;6052733;23;20043;-85
2021/12/20 12:05:51;;;;;;;6.32;2.47;;;;;;;2.51;nan;94789.25;6050641;23;20021;-87
2021/12/20 12:08:49;;;;;;;4.60;3.33;;;;;;;2.97;nan;94855.59;6047893;23;20323;-85
2021/12/20 12:11:15;;;;;;;6.57;3.30;;;;;;;3.00;nan;94834.13;6029235;23;20014;-86
2021/12/20 12:13:48;;;;;;;4.85;2.95;;;;;;;3.05;nan;94834.25;6048252;23;20082;-87